Time,TemperatureF,DewpointF,PressureIn,WindDirection,WindDirectionDegrees,WindSpeedMPH,WindSpeedGustMPH,Humidity,HourlyPrecipIn,Conditions,Clouds,dailyrainin,SolarRadiationWatts/m^2,SoftwareType,DateUTC
2013-01-10 00:01:00,28.0,20.0,-100.00,SW,220,5.0,6.0,73,0.00,,,0.00,1.000000,,2013-01-10 08:01:00,
2013-01-10 00:02:00,27.0,20.0,-100.00,SSW,213,4.0,7.0,76,0.00,,,0.00,1.000000,,2013-01-10 08:02:00,
2013-01-10 00:32:00,27.0,20.0,-100.00,SSW,213,4.0,7.0,76,0.00,,,0.00,1.000000,,2013-01-10 08:32:00,
2013-01-10 00:42:00,27.0,20.0,-100.00,SSW,213,4.0,7.0,76,0.00,,,0.00,1.000000,,2013-01-10 08:42:00,
2013-01-10 00:52:00,27.0,20.0,-100.00,SSW,213,4.0,7.0,76,0.00,,,0.00,1.000000,,2013-01-10 08:52:00,
2013-01-10 01:02:00,26.0,21.0,-100.00,WSW,248,4.0,6.0,80,0.00,,,0.00,1.000000,,2013-01-10 09:02:00,
2013-01-10 01:32:00,26.0,21.0,-100.00,WSW,248,4.0,6.0,80,0.00,,,0.00,1.000000,,2013-01-10 09:32:00,
2013-01-10 01:43:00,26.0,21.0,-100.00,WSW,248,4.0,6.0,80,0.00,,,0.00,1.000000,,2013-01-10 09:43:00,
2013-01-10 01:52:00,26.0,21.0,-100.00,WSW,248,4.0,6.0,80,0.00,,,0.00,1.000000,,2013-01-10 09:52:00,
2013-01-10 02:02:00,26.0,20.0,-100.00,SSE,165,2.0,5.0,78,0.00,,,0.00,1.000000,,2013-01-10 10:02:00,
2013-01-10 02:33:00,26.0,20.0,-100.00,SSE,165,2.0,5.0,78,0.00,,,0.00,1.000000,,2013-01-10 10:33:00,
2013-01-10 02:42:00,26.0,20.0,-100.00,SSE,165,2.0,5.0,78,0.00,,,0.00,1.000000,,2013-01-10 10:42:00,
2013-01-10 02:52:00,26.0,20.0,-100.00,SSE,165,2.0,5.0,78,0.00,,,0.00,1.000000,,2013-01-10 10:52:00,
2013-01-10 03:02:00,26.0,21.0,-100.00,SW,220,5.0,8.0,80,0.00,,,0.00,1.000000,,2013-01-10 11:02:00,
2013-01-10 03:23:00,26.0,21.0,-100.00,SW,220,5.0,8.0,80,0.00,,,0.00,1.000000,,2013-01-10 11:23:00,
2013-01-10 03:33:00,26.0,21.0,-100.00,SW,220,5.0,8.0,80,0.00,,,0.00,1.000000,,2013-01-10 11:33:00,
2013-01-10 03:43:00,26.0,21.0,-100.00,SW,220,5.0,8.0,80,0.00,,,0.00,1.000000,,2013-01-10 11:43:00,
2013-01-10 03:53:00,26.0,21.0,-100.00,SW,220,5.0,8.0,80,0.00,,,0.00,1.000000,,2013-01-10 11:53:00,
2013-01-10 06:02:00,26.0,20.0,-100.00,SW,231,7.0,11.0,79,-99.99,,,0.00,1.000000,,2013-01-10 14:02:00,
2013-01-10 06:22:00,26.0,20.0,-100.00,SW,231,7.0,11.0,79,-99.99,,,0.00,1.000000,,2013-01-10 14:22:00,
2013-01-10 06:33:00,26.0,20.0,-100.00,SW,231,7.0,11.0,79,-99.99,,,0.00,1.000000,,2013-01-10 14:33:00,
2013-01-10 06:43:00,26.0,20.0,-100.00,SW,231,7.0,11.0,79,-99.99,,,0.00,1.000000,,2013-01-10 14:43:00,
2013-01-10 06:53:00,26.0,20.0,-100.00,SW,231,7.0,11.0,79,-99.99,,,0.00,1.000000,,2013-01-10 14:53:00,
2013-01-10 07:02:00,25.0,19.0,-100.00,SSW,211,5.0,8.0,79,0.00,,,0.00,1.000000,,2013-01-10 15:02:00,
2013-01-10 07:33:00,25.0,19.0,-100.00,SSW,211,5.0,8.0,79,0.00,,,0.00,1.000000,,2013-01-10 15:33:00,
2013-01-10 07:43:00,25.0,19.0,-100.00,SSW,211,5.0,8.0,79,0.00,,,0.00,1.000000,,2013-01-10 15:43:00,
2013-01-10 07:53:00,25.0,19.0,-100.00,SSW,211,5.0,8.0,79,0.00,,,0.00,1.000000,,2013-01-10 15:53:00,
2013-01-10 08:02:00,25.0,19.0,-100.00,SSW,202,5.0,10.0,79,0.00,,,0.00,1.000000,,2013-01-10 16:02:00,
2013-01-10 08:33:00,25.0,19.0,-100.00,SSW,202,5.0,10.0,79,0.00,,,0.00,1.000000,,2013-01-10 16:33:00,
2013-01-10 08:43:00,25.0,19.0,-100.00,SSW,202,5.0,10.0,79,0.00,,,0.00,1.000000,,2013-01-10 16:43:00,
2013-01-10 08:53:00,25.0,19.0,-100.00,SSW,202,5.0,10.0,79,0.00,,,0.00,1.000000,,2013-01-10 16:53:00,
2013-01-10 09:02:00,27.0,20.0,-100.00,SSW,209,5.0,7.0,76,0.00,,,0.00,2.000000,,2013-01-10 17:02:00,
2013-01-10 09:33:00,27.0,20.0,-100.00,SSW,209,5.0,7.0,76,0.00,,,0.00,2.000000,,2013-01-10 17:33:00,
2013-01-10 09:43:00,27.0,20.0,-100.00,SSW,209,5.0,7.0,76,0.00,,,0.00,2.000000,,2013-01-10 17:43:00,
2013-01-10 09:53:00,27.0,20.0,-100.00,SSW,209,5.0,7.0,76,0.00,,,0.00,2.000000,,2013-01-10 17:53:00,
2013-01-10 10:02:00,28.0,21.0,-100.00,SSW,213,4.0,8.0,75,0.00,,,0.00,2.000000,,2013-01-10 18:02:00,
2013-01-10 10:23:00,28.0,21.0,-100.00,SSW,213,4.0,8.0,75,0.00,,,0.00,2.000000,,2013-01-10 18:23:00,
2013-01-10 10:33:00,28.0,21.0,-100.00,SSW,213,4.0,8.0,75,0.00,,,0.00,2.000000,,2013-01-10 18:33:00,
2013-01-10 10:43:00,28.0,21.0,-100.00,SSW,213,4.0,8.0,75,0.00,,,0.00,2.000000,,2013-01-10 18:43:00,
2013-01-10 10:53:00,28.0,21.0,-100.00,SSW,213,4.0,8.0,75,0.00,,,0.00,2.000000,,2013-01-10 18:53:00,
2013-01-10 11:02:00,27.0,24.0,-100.00,NNE,32,2.0,3.0,90,0.00,,,-99.99,2.000000,,2013-01-10 19:02:00,
2013-01-10 11:33:00,27.0,24.0,-100.00,NNE,32,2.0,3.0,90,0.00,,,-99.99,2.000000,,2013-01-10 19:33:00,
2013-01-10 11:43:00,27.0,24.0,-100.00,NNE,32,2.0,3.0,90,0.00,,,-99.99,2.000000,,2013-01-10 19:43:00,
2013-01-10 11:53:00,27.0,24.0,-100.00,NNE,32,2.0,3.0,90,0.00,,,-99.99,2.000000,,2013-01-10 19:53:00,
2013-01-10 12:02:00,29.0,24.0,-100.00,SSW,213,6.0,9.0,82,0.00,,,0.00,2.000000,,2013-01-10 20:02:00,
2013-01-10 12:24:00,29.0,24.0,-100.00,SSW,213,6.0,9.0,82,0.00,,,0.00,2.000000,,2013-01-10 20:24:00,
2013-01-10 12:33:00,29.0,24.0,-100.00,SSW,213,6.0,9.0,82,0.00,,,0.00,2.000000,,2013-01-10 20:33:00,
2013-01-10 12:43:00,29.0,24.0,-100.00,SSW,213,6.0,9.0,82,0.00,,,0.00,2.000000,,2013-01-10 20:43:00,
2013-01-10 12:53:00,29.0,24.0,-100.00,SSW,213,6.0,9.0,82,0.00,,,0.00,2.000000,,2013-01-10 20:53:00,
2013-01-10 13:02:00,31.0,25.0,-100.00,WSW,237,7.0,13.0,77,0.01,,,0.01,179.000000,,2013-01-10 21:02:00,
2013-01-10 13:33:00,31.0,25.0,-100.00,WSW,237,7.0,13.0,77,0.01,,,0.01,179.000000,,2013-01-10 21:33:00,
2013-01-10 13:43:00,31.0,25.0,-100.00,WSW,237,7.0,13.0,77,0.01,,,0.01,179.000000,,2013-01-10 21:43:00,
2013-01-10 13:53:00,31.0,25.0,-100.00,WSW,237,7.0,13.0,77,0.01,,,0.01,179.000000,,2013-01-10 21:53:00,
2013-01-10 14:02:00,31.0,24.0,-100.00,SW,223,6.0,9.0,76,0.00,,,0.01,335.000000,,2013-01-10 22:02:00,
2013-01-10 14:27:00,31.0,24.0,-100.00,SW,223,6.0,9.0,76,0.00,,,0.01,335.000000,,2013-01-10 22:27:00,
2013-01-10 14:34:00,31.0,24.0,-100.00,SW,223,6.0,9.0,76,0.00,,,0.01,335.000000,,2013-01-10 22:34:00,
2013-01-10 14:44:00,31.0,24.0,-100.00,SW,223,6.0,9.0,76,0.00,,,0.01,335.000000,,2013-01-10 22:44:00,
2013-01-10 15:02:00,35.0,25.0,-100.00,SW,226,3.0,8.0,66,0.00,,,0.01,245.000000,,2013-01-10 23:02:00,
2013-01-10 15:33:00,35.0,25.0,-100.00,SW,226,3.0,8.0,66,0.00,,,0.01,245.000000,,2013-01-10 23:33:00,
2013-01-10 15:43:00,35.0,25.0,-100.00,SW,226,3.0,8.0,66,0.00,,,0.01,245.000000,,2013-01-10 23:43:00,
2013-01-10 15:53:00,35.0,25.0,-100.00,SW,226,3.0,8.0,66,0.00,,,0.01,245.000000,,2013-01-10 23:53:00,
2013-01-10 16:02:00,31.0,23.0,-100.00,SW,221,3.0,6.0,73,0.00,,,0.01,176.000000,,2013-01-11 00:02:00,
2013-01-10 16:33:00,31.0,23.0,-100.00,SW,221,3.0,6.0,73,0.00,,,0.01,176.000000,,2013-01-11 00:33:00,
2013-01-10 16:43:00,31.0,23.0,-100.00,SW,221,3.0,6.0,73,0.00,,,0.01,176.000000,,2013-01-11 00:43:00,
2013-01-10 16:53:00,31.0,23.0,-100.00,SW,221,3.0,6.0,73,0.00,,,0.01,176.000000,,2013-01-11 00:53:00,
2013-01-10 17:02:00,29.0,20.0,-100.00,NW,321,4.0,9.0,69,0.00,,,0.01,24.000000,,2013-01-11 01:02:00,
2013-01-10 17:34:00,29.0,20.0,-100.00,NW,321,4.0,9.0,69,0.00,,,0.01,24.000000,,2013-01-11 01:34:00,
2013-01-10 17:43:00,29.0,20.0,-100.00,NW,321,4.0,9.0,69,0.00,,,0.01,24.000000,,2013-01-11 01:43:00,
2013-01-10 17:53:00,29.0,20.0,-100.00,NW,321,4.0,9.0,69,0.00,,,0.01,24.000000,,2013-01-11 01:53:00,
2013-01-10 18:02:00,28.0,16.0,-100.00,NNW,332,4.0,8.0,60,0.01,,,0.02,1.000000,,2013-01-11 02:02:00,
2013-01-10 18:24:00,28.0,16.0,-100.00,NNW,332,4.0,8.0,60,0.01,,,0.02,1.000000,,2013-01-11 02:24:00,
2013-01-10 18:33:00,28.0,16.0,-100.00,NNW,332,4.0,8.0,60,0.01,,,0.02,1.000000,,2013-01-11 02:33:00,
2013-01-10 18:43:00,28.0,16.0,-100.00,NNW,332,4.0,8.0,60,0.01,,,0.02,1.000000,,2013-01-11 02:43:00,
2013-01-10 18:53:00,28.0,16.0,-100.00,NNW,332,4.0,8.0,60,0.01,,,0.02,1.000000,,2013-01-11 02:53:00,
2013-01-10 19:02:00,27.0,16.0,-100.00,East,94,1.0,12.0,64,0.00,,,0.02,1.000000,,2013-01-11 03:02:00,
2013-01-10 19:33:00,27.0,16.0,-100.00,East,94,1.0,12.0,64,0.00,,,0.02,1.000000,,2013-01-11 03:33:00,
2013-01-10 19:43:00,27.0,16.0,-100.00,East,94,1.0,12.0,64,0.00,,,0.02,1.000000,,2013-01-11 03:43:00,
2013-01-10 19:53:00,27.0,16.0,-100.00,East,94,1.0,12.0,64,0.00,,,0.02,1.000000,,2013-01-11 03:53:00,
2013-01-10 20:02:00,25.0,18.0,-100.00,NNE,15,6.0,10.0,75,0.00,,,-99.99,1.000000,,2013-01-11 04:02:00,
2013-01-10 20:33:00,25.0,18.0,-100.00,NNE,15,6.0,10.0,75,0.00,,,-99.99,1.000000,,2013-01-11 04:33:00,
2013-01-10 20:43:00,25.0,18.0,-100.00,NNE,15,6.0,10.0,75,0.00,,,-99.99,1.000000,,2013-01-11 04:43:00,
2013-01-10 20:53:00,25.0,18.0,-100.00,NNE,15,6.0,10.0,75,0.00,,,-99.99,1.000000,,2013-01-11 04:53:00,
2013-01-10 21:02:00,22.0,18.0,-100.00,SSE,150,4.0,6.0,83,0.00,,,0.02,1.000000,,2013-01-11 05:02:00,
2013-01-10 21:33:00,22.0,18.0,-100.00,SSE,150,4.0,6.0,83,0.00,,,0.02,1.000000,,2013-01-11 05:33:00,
2013-01-10 21:43:00,22.0,18.0,-100.00,SSE,150,4.0,6.0,83,0.00,,,0.02,1.000000,,2013-01-11 05:43:00,
2013-01-10 21:52:00,22.0,18.0,-100.00,SSE,150,4.0,6.0,83,0.00,,,0.02,1.000000,,2013-01-11 05:52:00,
2013-01-10 22:02:00,23.0,17.0,-100.00,West,259,3.0,5.0,77,0.00,,,0.02,1.000000,,2013-01-11 06:02:00,
2013-01-10 22:32:00,23.0,17.0,-100.00,West,259,3.0,5.0,77,0.00,,,0.02,1.000000,,2013-01-11 06:32:00,
2013-01-10 22:42:00,23.0,17.0,-100.00,West,259,3.0,5.0,77,0.00,,,0.02,1.000000,,2013-01-11 06:42:00,
2013-01-10 22:52:00,23.0,17.0,-100.00,West,259,3.0,5.0,77,0.00,,,0.02,1.000000,,2013-01-11 06:52:00,
2013-01-10 23:02:00,25.0,15.0,-100.00,WNW,296,4.0,7.0,64,0.00,,,0.02,1.000000,,2013-01-11 07:02:00,
2013-01-10 23:22:00,25.0,15.0,-100.00,WNW,296,4.0,7.0,64,0.00,,,0.02,1.000000,,2013-01-11 07:22:00,
2013-01-10 23:32:00,25.0,15.0,-100.00,WNW,296,4.0,7.0,64,0.00,,,0.02,1.000000,,2013-01-11 07:32:00,
2013-01-10 23:42:00,25.0,15.0,-100.00,WNW,296,4.0,7.0,64,0.00,,,0.02,1.000000,,2013-01-11 07:42:00,
2013-01-10 23:52:00,25.0,15.0,-100.00,WNW,296,4.0,7.0,64,0.00,,,0.02,1.000000,,2013-01-11 07:52:00,